Hutchins, Vermont
Current Conditions -  °F | °C
As of 2:35 PM on Thursday 23 Oct 2014 (Local Time) from KEFK Reporting Station
Moderate Rain Moderate Rain  
Wind Chill: 36°   Ceiling: 700
Heat Index: 43°   Visibility: 7mi
Dew Point: 42°   Wind: 15mph
Humidity: 97%   Direction: 350°N
Pressure: 29.9"   Gusts: 18mph
Location:  44.8557°N, 72.6016°W
Report Text: KEFK 231835Z AUTO 35013G16KT 7SM RA BKN007 OVC013 06/06 A2990 RMK AO2 T00630058
Loading
Personal Weather Stations






























Interactive Weather Map New forecast layout! Learn more

10-Day Weather Forecast

Advertisements
Track Severe Weather on mobile